sensor_id;sensor_type;location;lat;lon;timestamp;P1;durP1;ratioP1;P2;durP2;ratioP2
5129;SDS011;2583;50.946;6.954;2023-04-06T00:00:38;13.03;;;11.27;;
5129;SDS011;2583;50.946;6.954;2023-04-06T00:03:05;12.60;;;10.27;;
5129;SDS011;2583;50.946;6.954;2023-04-06T00:05:32;13.07;;;10.97;;
5129;SDS011;2583;50.946;6.954;2023-04-06T00:07:59;14.33;;;10.60;;
5129;SDS011;2583;50.946;6.954;2023-04-06T00:10:26;16.27;;;11.70;;
5129;SDS011;2583;50.946;6.954;2023-04-06T00:12:53;17.63;;;11.03;;
5129;SDS011;2583;50.946;6.954;2023-04-06T00:15:20;11.63;;;9.73;;
5129;SDS011;2583;50.946;6.954;2023-04-06T00:17:47;14.00;;;10.43;;
5129;SDS011;2583;50.946;6.954;2023-04-06T00:20:15;13.93;;;10.50;;
5129;SDS011;2583;50.946;6.954;2023-04-06T00:22:42;11.73;;;10.30;;
5129;SDS011;2583;50.946;6.954;2023-04-06T00:25:10;13.53;;;9.93;;
5129;SDS011;2583;50.946;6.954;2023-04-06T00:27:37;11.73;;;9.73;;
5129;SDS011;2583;50.946;6.954;2023-04-06T00:30:05;12.17;;;9.00;;
5129;SDS011;2583;50.946;6.954;2023-04-06T00:32:32;11.50;;;9.23;;
5129;SDS011;2583;50.946;6.954;2023-04-06T00:34:59;12.80;;;9.67;;
5129;SDS011;2583;50.946;6.954;2023-04-06T00:37:26;15.53;;;9.27;;
5129;SDS011;2583;50.946;6.954;2023-04-06T00:39:53;10.73;;;9.63;;
5129;SDS011;2583;50.946;6.954;2023-04-06T00:42:19;9.33;;;8.43;;
5129;SDS011;2583;50.946;6.954;2023-04-06T00:44:55;8.90;;;8.10;;
5129;SDS011;2583;50.946;6.954;2023-04-06T00:47:23;9.90;;;9.00;;
5129;SDS011;2583;50.946;6.954;2023-04-06T00:49:53;8.13;;;7.33;;
5129;SDS011;2583;50.946;6.954;2023-04-06T00:52:21;9.80;;;7.80;;
5129;SDS011;2583;50.946;6.954;2023-04-06T00:54:48;11.93;;;7.47;;
5129;SDS011;2583;50.946;6.954;2023-04-06T00:57:15;8.20;;;7.40;;
5129;SDS011;2583;50.946;6.954;2023-04-06T00:59:43;7.63;;;6.97;;
5129;SDS011;2583;50.946;6.954;2023-04-06T01:02:11;13.50;;;6.80;;
5129;SDS011;2583;50.946;6.954;2023-04-06T01:04:38;7.80;;;7.20;;
5129;SDS011;2583;50.946;6.954;2023-04-06T01:07:05;6.77;;;6.23;;
5129;SDS011;2583;50.946;6.954;2023-04-06T01:09:32;7.30;;;6.70;;
5129;SDS011;2583;50.946;6.954;2023-04-06T01:11:59;7.90;;;7.13;;
5129;SDS011;2583;50.946;6.954;2023-04-06T01:14:27;7.23;;;6.53;;
5129;SDS011;2583;50.946;6.954;2023-04-06T01:16:53;6.90;;;6.40;;
5129;SDS011;2583;50.946;6.954;2023-04-06T01:19:21;11.60;;;6.90;;
5129;SDS011;2583;50.946;6.954;2023-04-06T01:21:48;6.83;;;6.23;;
5129;SDS011;2583;50.946;6.954;2023-04-06T01:24:16;8.40;;;6.60;;
5129;SDS011;2583;50.946;6.954;2023-04-06T01:26:43;7.03;;;6.27;;
5129;SDS011;2583;50.946;6.954;2023-04-06T01:29:11;6.93;;;6.33;;
5129;SDS011;2583;50.946;6.954;2023-04-06T01:31:38;9.33;;;6.73;;
5129;SDS011;2583;50.946;6.954;2023-04-06T01:34:06;8.10;;;7.40;;
5129;SDS011;2583;50.946;6.954;2023-04-06T01:36:33;8.63;;;7.93;;
5129;SDS011;2583;50.946;6.954;2023-04-06T01:39:00;7.27;;;6.07;;
5129;SDS011;2583;50.946;6.954;2023-04-06T01:41:26;7.23;;;6.63;;
5129;SDS011;2583;50.946;6.954;2023-04-06T01:43:53;7.30;;;6.70;;
5129;SDS011;2583;50.946;6.954;2023-04-06T01:46:21;9.20;;;7.77;;
5129;SDS011;2583;50.946;6.954;2023-04-06T01:48:47;6.83;;;5.93;;
5129;SDS011;2583;50.946;6.954;2023-04-06T01:51:15;7.40;;;6.30;;
5129;SDS011;2583;50.946;6.954;2023-04-06T01:53:42;7.57;;;6.87;;
5129;SDS011;2583;50.946;6.954;2023-04-06T01:56:09;7.30;;;6.70;;
5129;SDS011;2583;50.946;6.954;2023-04-06T01:58:36;7.40;;;6.80;;
5129;SDS011;2583;50.946;6.954;2023-04-06T02:01:02;7.13;;;6.57;;
5129;SDS011;2583;50.946;6.954;2023-04-06T02:03:30;6.90;;;6.20;;
5129;SDS011;2583;50.946;6.954;2023-04-06T02:05:57;7.10;;;6.27;;
5129;SDS011;2583;50.946;6.954;2023-04-06T02:08:24;8.03;;;6.57;;
5129;SDS011;2583;50.946;6.954;2023-04-06T02:10:51;9.87;;;7.47;;
5129;SDS011;2583;50.946;6.954;2023-04-06T02:13:18;7.00;;;6.00;;
5129;SDS011;2583;50.946;6.954;2023-04-06T02:15:45;9.63;;;6.40;;
5129;SDS011;2583;50.946;6.954;2023-04-06T02:18:12;13.87;;;7.17;;
5129;SDS011;2583;50.946;6.954;2023-04-06T02:20:38;6.97;;;5.90;;
5129;SDS011;2583;50.946;6.954;2023-04-06T02:23:05;7.03;;;6.50;;
5129;SDS011;2583;50.946;6.954;2023-04-06T02:25:32;7.10;;;6.50;;
5129;SDS011;2583;50.946;6.954;2023-04-06T02:27:59;7.07;;;6.43;;
5129;SDS011;2583;50.946;6.954;2023-04-06T02:30:26;7.90;;;6.33;;
5129;SDS011;2583;50.946;6.954;2023-04-06T02:32:53;7.07;;;6.40;;
5129;SDS011;2583;50.946;6.954;2023-04-06T02:35:20;6.57;;;5.97;;
5129;SDS011;2583;50.946;6.954;2023-04-06T02:37:47;7.87;;;6.10;;
5129;SDS011;2583;50.946;6.954;2023-04-06T02:40:14;6.23;;;5.83;;
5129;SDS011;2583;50.946;6.954;2023-04-06T02:42:41;9.23;;;6.80;;
5129;SDS011;2583;50.946;6.954;2023-04-06T02:45:07;7.20;;;6.23;;
5129;SDS011;2583;50.946;6.954;2023-04-06T02:47:34;6.60;;;6.00;;
5129;SDS011;2583;50.946;6.954;2023-04-06T02:50:01;7.47;;;6.30;;
5129;SDS011;2583;50.946;6.954;2023-04-06T02:52:28;7.70;;;7.03;;
5129;SDS011;2583;50.946;6.954;2023-04-06T02:54:55;8.67;;;6.50;;
5129;SDS011;2583;50.946;6.954;2023-04-06T02:57:22;8.97;;;6.97;;
5129;SDS011;2583;50.946;6.954;2023-04-06T02:59:49;6.60;;;6.10;;
5129;SDS011;2583;50.946;6.954;2023-04-06T03:02:16;6.27;;;5.77;;
5129;SDS011;2583;50.946;6.954;2023-04-06T03:04:43;7.00;;;6.30;;
5129;SDS011;2583;50.946;6.954;2023-04-06T03:07:10;6.97;;;6.47;;
5129;SDS011;2583;50.946;6.954;2023-04-06T03:09:37;8.40;;;6.30;;
5129;SDS011;2583;50.946;6.954;2023-04-06T03:12:05;6.77;;;6.27;;
5129;SDS011;2583;50.946;6.954;2023-04-06T03:14:35;7.57;;;6.87;;
5129;SDS011;2583;50.946;6.954;2023-04-06T03:17:01;10.93;;;6.73;;
5129;SDS011;2583;50.946;6.954;2023-04-06T03:19:28;7.10;;;6.07;;
5129;SDS011;2583;50.946;6.954;2023-04-06T03:21:55;7.90;;;6.20;;
5129;SDS011;2583;50.946;6.954;2023-04-06T03:24:22;6.93;;;6.50;;
5129;SDS011;2583;50.946;6.954;2023-04-06T03:26:49;7.03;;;6.53;;
5129;SDS011;2583;50.946;6.954;2023-04-06T03:29:16;8.93;;;6.93;;
5129;SDS011;2583;50.946;6.954;2023-04-06T03:31:42;8.90;;;6.67;;
5129;SDS011;2583;50.946;6.954;2023-04-06T03:34:10;8.00;;;7.07;;
5129;SDS011;2583;50.946;6.954;2023-04-06T03:36:36;8.97;;;6.10;;
5129;SDS011;2583;50.946;6.954;2023-04-06T03:39:03;8.40;;;6.67;;
5129;SDS011;2583;50.946;6.954;2023-04-06T03:41:30;7.93;;;7.23;;
5129;SDS011;2583;50.946;6.954;2023-04-06T03:43:57;8.53;;;6.40;;
5129;SDS011;2583;50.946;6.954;2023-04-06T03:46:24;6.77;;;6.17;;
5129;SDS011;2583;50.946;6.954;2023-04-06T03:48:51;6.90;;;6.40;;
5129;SDS011;2583;50.946;6.954;2023-04-06T03:51:18;6.70;;;6.13;;
5129;SDS011;2583;50.946;6.954;2023-04-06T03:53:45;7.33;;;6.23;;
5129;SDS011;2583;50.946;6.954;2023-04-06T03:56:11;9.20;;;6.63;;
5129;SDS011;2583;50.946;6.954;2023-04-06T03:58:38;11.97;;;7.40;;
5129;SDS011;2583;50.946;6.954;2023-04-06T04:01:05;9.33;;;7.33;;
5129;SDS011;2583;50.946;6.954;2023-04-06T04:03:32;7.20;;;6.50;;
5129;SDS011;2583;50.946;6.954;2023-04-06T04:05:59;6.93;;;6.43;;
5129;SDS011;2583;50.946;6.954;2023-04-06T04:08:26;7.67;;;6.53;;
5129;SDS011;2583;50.946;6.954;2023-04-06T04:10:53;10.87;;;6.77;;
5129;SDS011;2583;50.946;6.954;2023-04-06T04:13:19;7.07;;;6.47;;
5129;SDS011;2583;50.946;6.954;2023-04-06T04:15:46;18.63;;;7.53;;
5129;SDS011;2583;50.946;6.954;2023-04-06T04:18:13;6.80;;;6.20;;
5129;SDS011;2583;50.946;6.954;2023-04-06T04:20:41;7.60;;;6.50;;
5129;SDS011;2583;50.946;6.954;2023-04-06T04:23:07;6.90;;;6.30;;
5129;SDS011;2583;50.946;6.954;2023-04-06T04:25:34;12.00;;;6.50;;
5129;SDS011;2583;50.946;6.954;2023-04-06T04:28:01;8.37;;;6.97;;
5129;SDS011;2583;50.946;6.954;2023-04-06T04:30:29;6.67;;;6.07;;
5129;SDS011;2583;50.946;6.954;2023-04-06T04:32:55;8.63;;;6.43;;
5129;SDS011;2583;50.946;6.954;2023-04-06T04:35:22;6.87;;;6.23;;
5129;SDS011;2583;50.946;6.954;2023-04-06T04:37:49;7.33;;;6.73;;
5129;SDS011;2583;50.946;6.954;2023-04-06T04:40:16;8.20;;;7.10;;
5129;SDS011;2583;50.946;6.954;2023-04-06T04:42:43;6.87;;;6.13;;
5129;SDS011;2583;50.946;6.954;2023-04-06T04:45:10;7.37;;;6.67;;
5129;SDS011;2583;50.946;6.954;2023-04-06T04:47:37;6.47;;;5.97;;
5129;SDS011;2583;50.946;6.954;2023-04-06T04:50:04;7.87;;;7.17;;
5129;SDS011;2583;50.946;6.954;2023-04-06T04:52:32;7.40;;;6.70;;
5129;SDS011;2583;50.946;6.954;2023-04-06T04:54:58;6.50;;;5.93;;
5129;SDS011;2583;50.946;6.954;2023-04-06T04:57:25;6.60;;;6.10;;
5129;SDS011;2583;50.946;6.954;2023-04-06T04:59:52;7.27;;;6.67;;
5129;SDS011;2583;50.946;6.954;2023-04-06T05:02:22;9.43;;;6.17;;
5129;SDS011;2583;50.946;6.954;2023-04-06T05:04:49;7.90;;;6.60;;
5129;SDS011;2583;50.946;6.954;2023-04-06T05:07:16;6.87;;;6.37;;
5129;SDS011;2583;50.946;6.954;2023-04-06T05:09:44;12.87;;;6.37;;
5129;SDS011;2583;50.946;6.954;2023-04-06T05:12:11;7.83;;;7.10;;
5129;SDS011;2583;50.946;6.954;2023-04-06T05:14:38;7.83;;;5.80;;
5129;SDS011;2583;50.946;6.954;2023-04-06T05:17:05;8.63;;;6.50;;
5129;SDS011;2583;50.946;6.954;2023-04-06T05:19:32;7.47;;;6.90;;
5129;SDS011;2583;50.946;6.954;2023-04-06T05:21:59;7.50;;;6.80;;
5129;SDS011;2583;50.946;6.954;2023-04-06T05:24:26;8.50;;;6.80;;
5129;SDS011;2583;50.946;6.954;2023-04-06T05:26:53;6.80;;;6.20;;
5129;SDS011;2583;50.946;6.954;2023-04-06T05:29:20;7.33;;;6.70;;
5129;SDS011;2583;50.946;6.954;2023-04-06T05:31:47;7.80;;;6.57;;
5129;SDS011;2583;50.946;6.954;2023-04-06T05:34:14;15.77;;;6.17;;
5129;SDS011;2583;50.946;6.954;2023-04-06T05:36:41;11.23;;;6.60;;
5129;SDS011;2583;50.946;6.954;2023-04-06T05:39:08;6.43;;;5.90;;
5129;SDS011;2583;50.946;6.954;2023-04-06T05:41:36;9.50;;;5.80;;
5129;SDS011;2583;50.946;6.954;2023-04-06T05:44:02;6.63;;;6.03;;
5129;SDS011;2583;50.946;6.954;2023-04-06T05:46:29;8.97;;;6.00;;
5129;SDS011;2583;50.946;6.954;2023-04-06T05:48:57;10.97;;;6.60;;
5129;SDS011;2583;50.946;6.954;2023-04-06T05:51:24;8.80;;;5.50;;
5129;SDS011;2583;50.946;6.954;2023-04-06T05:53:53;10.47;;;6.00;;
5129;SDS011;2583;50.946;6.954;2023-04-06T05:56:19;11.87;;;6.50;;
5129;SDS011;2583;50.946;6.954;2023-04-06T05:58:46;7.30;;;6.60;;
5129;SDS011;2583;50.946;6.954;2023-04-06T06:01:13;7.80;;;7.10;;
5129;SDS011;2583;50.946;6.954;2023-04-06T06:03:40;7.03;;;6.33;;
5129;SDS011;2583;50.946;6.954;2023-04-06T06:06:07;6.90;;;6.30;;
5129;SDS011;2583;50.946;6.954;2023-04-06T06:08:34;7.93;;;7.13;;
5129;SDS011;2583;50.946;6.954;2023-04-06T06:11:01;6.10;;;5.70;;
5129;SDS011;2583;50.946;6.954;2023-04-06T06:13:28;8.17;;;6.93;;
5129;SDS011;2583;50.946;6.954;2023-04-06T06:15:55;11.03;;;6.97;;
5129;SDS011;2583;50.946;6.954;2023-04-06T06:18:22;9.17;;;6.23;;
5129;SDS011;2583;50.946;6.954;2023-04-06T06:20:49;6.93;;;6.17;;
5129;SDS011;2583;50.946;6.954;2023-04-06T06:23:16;10.90;;;6.47;;
5129;SDS011;2583;50.946;6.954;2023-04-06T06:25:43;8.07;;;7.30;;
5129;SDS011;2583;50.946;6.954;2023-04-06T06:28:10;9.97;;;6.97;;
5129;SDS011;2583;50.946;6.954;2023-04-06T06:30:37;14.97;;;6.80;;
5129;SDS011;2583;50.946;6.954;2023-04-06T06:33:04;9.50;;;7.50;;
5129;SDS011;2583;50.946;6.954;2023-04-06T06:35:31;9.63;;;7.43;;
5129;SDS011;2583;50.946;6.954;2023-04-06T06:37:57;9.33;;;7.13;;
5129;SDS011;2583;50.946;6.954;2023-04-06T06:40:24;7.77;;;6.97;;
5129;SDS011;2583;50.946;6.954;2023-04-06T06:42:52;7.67;;;7.10;;
5129;SDS011;2583;50.946;6.954;2023-04-06T06:45:19;9.70;;;7.83;;
5129;SDS011;2583;50.946;6.954;2023-04-06T06:47:46;11.03;;;7.27;;
5129;SDS011;2583;50.946;6.954;2023-04-06T06:50:13;8.27;;;6.97;;
5129;SDS011;2583;50.946;6.954;2023-04-06T06:52:40;6.83;;;6.33;;
5129;SDS011;2583;50.946;6.954;2023-04-06T06:55:08;9.03;;;6.90;;
5129;SDS011;2583;50.946;6.954;2023-04-06T06:57:36;7.30;;;6.60;;
5129;SDS011;2583;50.946;6.954;2023-04-06T07:00:05;7.20;;;6.63;;
5129;SDS011;2583;50.946;6.954;2023-04-06T07:02:33;7.33;;;6.73;;
5129;SDS011;2583;50.946;6.954;2023-04-06T07:05:02;7.63;;;6.67;;
5129;SDS011;2583;50.946;6.954;2023-04-06T07:07:41;7.83;;;7.10;;
5129;SDS011;2583;50.946;6.954;2023-04-06T07:10:09;9.20;;;8.30;;
5129;SDS011;2583;50.946;6.954;2023-04-06T07:12:36;8.90;;;8.00;;
5129;SDS011;2583;50.946;6.954;2023-04-06T07:15:03;7.87;;;7.07;;
5129;SDS011;2583;50.946;6.954;2023-04-06T07:17:31;13.13;;;6.90;;
5129;SDS011;2583;50.946;6.954;2023-04-06T07:19:57;7.07;;;6.30;;
5129;SDS011;2583;50.946;6.954;2023-04-06T07:22:24;9.13;;;8.10;;
5129;SDS011;2583;50.946;6.954;2023-04-06T07:24:51;7.57;;;6.60;;
5129;SDS011;2583;50.946;6.954;2023-04-06T07:27:18;7.83;;;7.13;;
5129;SDS011;2583;50.946;6.954;2023-04-06T07:29:45;7.80;;;7.10;;
5129;SDS011;2583;50.946;6.954;2023-04-06T07:32:12;7.90;;;7.10;;
5129;SDS011;2583;50.946;6.954;2023-04-06T07:34:39;7.70;;;7.10;;
5129;SDS011;2583;50.946;6.954;2023-04-06T07:37:06;9.33;;;7.67;;
5129;SDS011;2583;50.946;6.954;2023-04-06T07:39:33;10.93;;;7.60;;
5129;SDS011;2583;50.946;6.954;2023-04-06T07:42:00;7.10;;;6.50;;
5129;SDS011;2583;50.946;6.954;2023-04-06T07:44:27;8.27;;;7.47;;
5129;SDS011;2583;50.946;6.954;2023-04-06T07:46:54;8.03;;;7.33;;
5129;SDS011;2583;50.946;6.954;2023-04-06T07:49:22;8.10;;;7.40;;
5129;SDS011;2583;50.946;6.954;2023-04-06T07:51:49;7.67;;;6.97;;
5129;SDS011;2583;50.946;6.954;2023-04-06T07:54:16;9.57;;;7.40;;
5129;SDS011;2583;50.946;6.954;2023-04-06T07:56:43;15.13;;;7.70;;
5129;SDS011;2583;50.946;6.954;2023-04-06T07:59:09;10.57;;;8.03;;
5129;SDS011;2583;50.946;6.954;2023-04-06T08:01:37;8.50;;;7.63;;
5129;SDS011;2583;50.946;6.954;2023-04-06T08:04:04;11.23;;;9.40;;
5129;SDS011;2583;50.946;6.954;2023-04-06T08:06:31;12.37;;;8.73;;
5129;SDS011;2583;50.946;6.954;2023-04-06T08:08:58;9.30;;;8.20;;
5129;SDS011;2583;50.946;6.954;2023-04-06T08:11:25;8.10;;;7.30;;
5129;SDS011;2583;50.946;6.954;2023-04-06T08:13:53;11.47;;;7.73;;
5129;SDS011;2583;50.946;6.954;2023-04-06T08:16:23;10.27;;;8.20;;
5129;SDS011;2583;50.946;6.954;2023-04-06T08:18:50;14.10;;;9.00;;
5129;SDS011;2583;50.946;6.954;2023-04-06T08:21:17;14.53;;;8.07;;
5129;SDS011;2583;50.946;6.954;2023-04-06T08:23:44;9.50;;;8.57;;
5129;SDS011;2583;50.946;6.954;2023-04-06T08:26:12;10.30;;;9.00;;
5129;SDS011;2583;50.946;6.954;2023-04-06T08:28:50;10.93;;;8.27;;
5129;SDS011;2583;50.946;6.954;2023-04-06T08:31:17;11.27;;;9.40;;
5129;SDS011;2583;50.946;6.954;2023-04-06T08:33:44;8.77;;;7.80;;
5129;SDS011;2583;50.946;6.954;2023-04-06T08:36:12;9.50;;;8.53;;
5129;SDS011;2583;50.946;6.954;2023-04-06T08:38:40;8.63;;;7.83;;
5129;SDS011;2583;50.946;6.954;2023-04-06T08:41:09;8.83;;;7.97;;
5129;SDS011;2583;50.946;6.954;2023-04-06T08:43:44;9.17;;;8.00;;
5129;SDS011;2583;50.946;6.954;2023-04-06T08:46:13;10.97;;;9.00;;
5129;SDS011;2583;50.946;6.954;2023-04-06T08:48:42;11.37;;;8.23;;
5129;SDS011;2583;50.946;6.954;2023-04-06T08:51:10;12.80;;;8.40;;
5129;SDS011;2583;50.946;6.954;2023-04-06T08:53:37;12.70;;;8.93;;
5129;SDS011;2583;50.946;6.954;2023-04-06T08:56:04;11.90;;;8.80;;
5129;SDS011;2583;50.946;6.954;2023-04-06T08:58:35;12.53;;;8.80;;
5129;SDS011;2583;50.946;6.954;2023-04-06T09:01:08;11.30;;;9.13;;
5129;SDS011;2583;50.946;6.954;2023-04-06T09:03:39;9.23;;;8.33;;
5129;SDS011;2583;50.946;6.954;2023-04-06T09:06:07;12.53;;;8.63;;
5129;SDS011;2583;50.946;6.954;2023-04-06T09:08:35;13.63;;;9.20;;
5129;SDS011;2583;50.946;6.954;2023-04-06T09:11:04;10.03;;;8.77;;
5129;SDS011;2583;50.946;6.954;2023-04-06T09:13:43;10.80;;;9.07;;
5129;SDS011;2583;50.946;6.954;2023-04-06T09:16:11;13.20;;;8.97;;
5129;SDS011;2583;50.946;6.954;2023-04-06T09:18:39;9.90;;;8.50;;
5129;SDS011;2583;50.946;6.954;2023-04-06T09:21:06;9.87;;;8.90;;
5129;SDS011;2583;50.946;6.954;2023-04-06T09:23:34;12.13;;;9.10;;
5129;SDS011;2583;50.946;6.954;2023-04-06T09:26:09;14.60;;;10.40;;
5129;SDS011;2583;50.946;6.954;2023-04-06T09:28:54;11.80;;;10.70;;
5129;SDS011;2583;50.946;6.954;2023-04-06T09:31:26;19.03;;;10.40;;
5129;SDS011;2583;50.946;6.954;2023-04-06T09:33:55;13.57;;;11.23;;
5129;SDS011;2583;50.946;6.954;2023-04-06T09:36:33;11.57;;;9.43;;
5129;SDS011;2583;50.946;6.954;2023-04-06T09:39:02;11.23;;;9.57;;
5129;SDS011;2583;50.946;6.954;2023-04-06T09:41:33;16.70;;;9.97;;
5129;SDS011;2583;50.946;6.954;2023-04-06T09:44:08;13.87;;;10.27;;
5129;SDS011;2583;50.946;6.954;2023-04-06T09:46:39;25.33;;;12.10;;
5129;SDS011;2583;50.946;6.954;2023-04-06T09:49:25;11.90;;;10.60;;
5129;SDS011;2583;50.946;6.954;2023-04-06T09:51:58;18.03;;;9.60;;
5129;SDS011;2583;50.946;6.954;2023-04-06T09:54:31;10.73;;;9.63;;
5129;SDS011;2583;50.946;6.954;2023-04-06T09:57:10;17.50;;;10.13;;
5129;SDS011;2583;50.946;6.954;2023-04-06T10:02:25;12.67;;;8.83;;
5129;SDS011;2583;50.946;6.954;2023-04-06T10:05:05;12.97;;;10.53;;
5129;SDS011;2583;50.946;6.954;2023-04-06T10:07:39;24.40;;;9.93;;
5129;SDS011;2583;50.946;6.954;2023-04-06T10:10:24;11.10;;;9.10;;
5129;SDS011;2583;50.946;6.954;2023-04-06T10:12:51;13.10;;;10.03;;
5129;SDS011;2583;50.946;6.954;2023-04-06T10:15:19;20.47;;;10.67;;
5129;SDS011;2583;50.946;6.954;2023-04-06T10:17:48;12.97;;;10.00;;
5129;SDS011;2583;50.946;6.954;2023-04-06T10:20:21;11.30;;;9.50;;
5129;SDS011;2583;50.946;6.954;2023-04-06T10:23:13;13.33;;;10.47;;
5129;SDS011;2583;50.946;6.954;2023-04-06T10:25:56;15.03;;;10.50;;
5129;SDS011;2583;50.946;6.954;2023-04-06T10:28:24;15.37;;;10.70;;
5129;SDS011;2583;50.946;6.954;2023-04-06T10:30:56;18.40;;;14.40;;
5129;SDS011;2583;50.946;6.954;2023-04-06T10:33:25;17.87;;;10.57;;
5129;SDS011;2583;50.946;6.954;2023-04-06T10:35:52;15.43;;;11.07;;
5129;SDS011;2583;50.946;6.954;2023-04-06T10:38:19;11.00;;;9.90;;
5129;SDS011;2583;50.946;6.954;2023-04-06T10:40:48;12.77;;;10.77;;
5129;SDS011;2583;50.946;6.954;2023-04-06T10:43:18;13.03;;;10.30;;
5129;SDS011;2583;50.946;6.954;2023-04-06T10:45:57;12.87;;;10.97;;
5129;SDS011;2583;50.946;6.954;2023-04-06T10:48:36;13.87;;;10.80;;
5129;SDS011;2583;50.946;6.954;2023-04-06T10:51:12;17.70;;;10.37;;
5129;SDS011;2583;50.946;6.954;2023-04-06T10:53:43;14.90;;;11.60;;
5129;SDS011;2583;50.946;6.954;2023-04-06T10:56:15;12.47;;;11.17;;
5129;SDS011;2583;50.946;6.954;2023-04-06T10:58:52;13.10;;;10.93;;
5129;SDS011;2583;50.946;6.954;2023-04-06T11:01:23;15.93;;;11.40;;
5129;SDS011;2583;50.946;6.954;2023-04-06T11:03:53;12.90;;;9.80;;
5129;SDS011;2583;50.946;6.954;2023-04-06T11:06:25;15.27;;;11.00;;
5129;SDS011;2583;50.946;6.954;2023-04-06T11:08:55;10.90;;;9.80;;
5129;SDS011;2583;50.946;6.954;2023-04-06T11:11:22;17.03;;;11.50;;
5129;SDS011;2583;50.946;6.954;2023-04-06T11:13:59;15.13;;;11.07;;
5129;SDS011;2583;50.946;6.954;2023-04-06T11:16:28;14.73;;;10.90;;
5129;SDS011;2583;50.946;6.954;2023-04-06T11:19:03;15.00;;;11.43;;
5129;SDS011;2583;50.946;6.954;2023-04-06T11:21:33;13.00;;;11.47;;
5129;SDS011;2583;50.946;6.954;2023-04-06T11:24:06;14.10;;;10.87;;
5129;SDS011;2583;50.946;6.954;2023-04-06T11:26:38;17.07;;;13.07;;
5129;SDS011;2583;50.946;6.954;2023-04-06T11:29:05;19.33;;;11.53;;
5129;SDS011;2583;50.946;6.954;2023-04-06T11:31:39;14.30;;;11.70;;
5129;SDS011;2583;50.946;6.954;2023-04-06T11:34:10;16.63;;;12.17;;
5129;SDS011;2583;50.946;6.954;2023-04-06T11:37:03;19.00;;;13.30;;
5129;SDS011;2583;50.946;6.954;2023-04-06T11:39:47;18.63;;;11.90;;
5129;SDS011;2583;50.946;6.954;2023-04-06T11:42:27;15.93;;;11.77;;
5129;SDS011;2583;50.946;6.954;2023-04-06T11:44:56;12.63;;;11.20;;
5129;SDS011;2583;50.946;6.954;2023-04-06T11:47:28;16.90;;;12.37;;
5129;SDS011;2583;50.946;6.954;2023-04-06T11:49:55;13.90;;;12.00;;
5129;SDS011;2583;50.946;6.954;2023-04-06T11:52:26;13.83;;;11.63;;
5129;SDS011;2583;50.946;6.954;2023-04-06T11:54:53;15.80;;;11.43;;
5129;SDS011;2583;50.946;6.954;2023-04-06T11:57:23;16.80;;;11.40;;
5129;SDS011;2583;50.946;6.954;2023-04-06T11:59:52;16.20;;;10.63;;
5129;SDS011;2583;50.946;6.954;2023-04-06T12:02:19;15.83;;;11.60;;
5129;SDS011;2583;50.946;6.954;2023-04-06T12:04:46;13.67;;;10.20;;
5129;SDS011;2583;50.946;6.954;2023-04-06T12:07:13;14.53;;;11.17;;
5129;SDS011;2583;50.946;6.954;2023-04-06T12:09:41;15.63;;;10.63;;
5129;SDS011;2583;50.946;6.954;2023-04-06T12:12:08;12.80;;;10.93;;
5129;SDS011;2583;50.946;6.954;2023-04-06T12:14:35;16.10;;;11.17;;
5129;SDS011;2583;50.946;6.954;2023-04-06T12:17:02;12.90;;;10.43;;
5129;SDS011;2583;50.946;6.954;2023-04-06T12:19:29;13.00;;;10.53;;
5129;SDS011;2583;50.946;6.954;2023-04-06T12:21:57;14.80;;;10.80;;
5129;SDS011;2583;50.946;6.954;2023-04-06T12:24:24;16.13;;;9.53;;
5129;SDS011;2583;50.946;6.954;2023-04-06T12:26:51;9.93;;;8.63;;
5129;SDS011;2583;50.946;6.954;2023-04-06T12:29:31;11.07;;;8.60;;
5129;SDS011;2583;50.946;6.954;2023-04-06T12:31:59;12.20;;;9.17;;
5129;SDS011;2583;50.946;6.954;2023-04-06T12:34:27;9.50;;;8.53;;
5129;SDS011;2583;50.946;6.954;2023-04-06T12:36:54;10.77;;;9.67;;
5129;SDS011;2583;50.946;6.954;2023-04-06T12:39:22;14.30;;;8.50;;
5129;SDS011;2583;50.946;6.954;2023-04-06T12:41:49;11.57;;;9.57;;
5129;SDS011;2583;50.946;6.954;2023-04-06T12:44:16;11.40;;;8.90;;
5129;SDS011;2583;50.946;6.954;2023-04-06T12:46:43;9.23;;;8.33;;
5129;SDS011;2583;50.946;6.954;2023-04-06T12:49:10;12.57;;;9.60;;
5129;SDS011;2583;50.946;6.954;2023-04-06T12:51:37;13.47;;;9.13;;
5129;SDS011;2583;50.946;6.954;2023-04-06T12:54:04;10.50;;;9.40;;
5129;SDS011;2583;50.946;6.954;2023-04-06T12:56:32;11.60;;;8.87;;
5129;SDS011;2583;50.946;6.954;2023-04-06T12:58:59;11.53;;;8.53;;
5129;SDS011;2583;50.946;6.954;2023-04-06T13:01:26;10.90;;;8.00;;
5129;SDS011;2583;50.946;6.954;2023-04-06T13:03:55;8.87;;;7.10;;
5129;SDS011;2583;50.946;6.954;2023-04-06T13:06:22;8.23;;;7.50;;
5129;SDS011;2583;50.946;6.954;2023-04-06T13:08:53;7.70;;;7.00;;
5129;SDS011;2583;50.946;6.954;2023-04-06T13:11:20;10.13;;;7.37;;
5129;SDS011;2583;50.946;6.954;2023-04-06T13:13:52;9.70;;;7.77;;
5129;SDS011;2583;50.946;6.954;2023-04-06T13:16:20;8.53;;;6.90;;
5129;SDS011;2583;50.946;6.954;2023-04-06T13:18:47;14.17;;;7.80;;
5129;SDS011;2583;50.946;6.954;2023-04-06T13:21:14;7.37;;;6.77;;
5129;SDS011;2583;50.946;6.954;2023-04-06T13:23:42;9.63;;;7.43;;
5129;SDS011;2583;50.946;6.954;2023-04-06T13:26:10;9.73;;;7.90;;
5129;SDS011;2583;50.946;6.954;2023-04-06T13:28:37;7.80;;;7.10;;
5129;SDS011;2583;50.946;6.954;2023-04-06T13:31:05;8.47;;;7.77;;
5129;SDS011;2583;50.946;6.954;2023-04-06T13:33:32;8.07;;;7.37;;
5129;SDS011;2583;50.946;6.954;2023-04-06T13:36:00;7.07;;;6.57;;
5129;SDS011;2583;50.946;6.954;2023-04-06T13:38:27;8.33;;;7.53;;
5129;SDS011;2583;50.946;6.954;2023-04-06T13:40:54;8.93;;;7.20;;
5129;SDS011;2583;50.946;6.954;2023-04-06T13:43:21;8.70;;;7.90;;
5129;SDS011;2583;50.946;6.954;2023-04-06T13:45:52;8.70;;;7.70;;
5129;SDS011;2583;50.946;6.954;2023-04-06T13:48:21;8.13;;;7.03;;
5129;SDS011;2583;50.946;6.954;2023-04-06T13:50:48;13.90;;;8.10;;
5129;SDS011;2583;50.946;6.954;2023-04-06T13:53:15;8.77;;;6.43;;
5129;SDS011;2583;50.946;6.954;2023-04-06T13:55:42;7.20;;;6.33;;
5129;SDS011;2583;50.946;6.954;2023-04-06T13:58:09;8.43;;;6.53;;
5129;SDS011;2583;50.946;6.954;2023-04-06T14:00:36;6.30;;;5.90;;
5129;SDS011;2583;50.946;6.954;2023-04-06T14:03:03;7.03;;;6.40;;
5129;SDS011;2583;50.946;6.954;2023-04-06T14:05:31;6.93;;;6.17;;
5129;SDS011;2583;50.946;6.954;2023-04-06T14:07:58;9.33;;;6.40;;
5129;SDS011;2583;50.946;6.954;2023-04-06T14:10:25;8.03;;;7.23;;
5129;SDS011;2583;50.946;6.954;2023-04-06T14:12:53;6.87;;;6.23;;
5129;SDS011;2583;50.946;6.954;2023-04-06T14:15:20;7.37;;;6.73;;
5129;SDS011;2583;50.946;6.954;2023-04-06T14:17:48;7.20;;;6.50;;
5129;SDS011;2583;50.946;6.954;2023-04-06T14:20:16;8.93;;;7.07;;
5129;SDS011;2583;50.946;6.954;2023-04-06T14:22:42;6.87;;;6.23;;
5129;SDS011;2583;50.946;6.954;2023-04-06T14:25:09;10.23;;;7.17;;
5129;SDS011;2583;50.946;6.954;2023-04-06T14:27:39;7.33;;;6.60;;
5129;SDS011;2583;50.946;6.954;2023-04-06T14:30:06;6.30;;;5.80;;
5129;SDS011;2583;50.946;6.954;2023-04-06T14:32:34;6.50;;;6.00;;
5129;SDS011;2583;50.946;6.954;2023-04-06T14:35:03;5.73;;;5.23;;
5129;SDS011;2583;50.946;6.954;2023-04-06T14:37:33;5.23;;;4.83;;
5129;SDS011;2583;50.946;6.954;2023-04-06T14:40:00;5.83;;;5.40;;
5129;SDS011;2583;50.946;6.954;2023-04-06T14:42:27;5.57;;;5.17;;
5129;SDS011;2583;50.946;6.954;2023-04-06T14:44:53;6.30;;;5.80;;
5129;SDS011;2583;50.946;6.954;2023-04-06T14:47:20;5.97;;;4.40;;
5129;SDS011;2583;50.946;6.954;2023-04-06T14:49:50;5.30;;;5.00;;
5129;SDS011;2583;50.946;6.954;2023-04-06T14:52:17;5.53;;;5.13;;
5129;SDS011;2583;50.946;6.954;2023-04-06T14:54:44;6.20;;;5.73;;
5129;SDS011;2583;50.946;6.954;2023-04-06T14:57:11;4.50;;;4.00;;
5129;SDS011;2583;50.946;6.954;2023-04-06T14:59:38;4.57;;;4.17;;
5129;SDS011;2583;50.946;6.954;2023-04-06T15:02:05;5.33;;;4.83;;
5129;SDS011;2583;50.946;6.954;2023-04-06T15:04:33;6.00;;;5.13;;
5129;SDS011;2583;50.946;6.954;2023-04-06T15:07:02;5.10;;;4.80;;
5129;SDS011;2583;50.946;6.954;2023-04-06T15:09:28;5.37;;;4.87;;
5129;SDS011;2583;50.946;6.954;2023-04-06T15:11:56;6.50;;;6.10;;
5129;SDS011;2583;50.946;6.954;2023-04-06T15:14:23;6.10;;;5.50;;
5129;SDS011;2583;50.946;6.954;2023-04-06T15:16:50;5.40;;;5.00;;